Time;durP1;ratioP1;P1;durP2;ratioP2;P2;SDS_P1;SDS_P2;PMS_P1;PMS_P2;Temp;Humidity;BMP_temperature;BMP_pressure;BME280_temperature;BME280_humidity;BME280_pressure;Samples;Min_cycle;Max_cycle;Signal;HPM_P1;HPM_P2
2022/03/06 09:24:19;;;;;;;;;;;102.90;2048.00;;;;;;6256931;22;19923;-91
2022/03/06 09:33:31;;;;;;;;;;;102.90;2124.80;;;;;;6258309;23;19915;-91
2022/03/06 09:47:53;;;;;;;;;;;103.20;2124.80;;;;;;6219385;22;19981;-90
2022/03/06 09:53:08;;;;;;;;;;;128.20;2124.80;;;;;;6217488;23;19928;-91
2022/03/06 09:55:34;;;;;;;;;;;128.50;2124.80;;;;;;6189445;23;19931;-90
2022/03/06 09:58:00;;;;;;;;;;;128.60;2099.20;;;;;;6189308;23;20332;-93
2022/03/06 10:00:25;;;;;;;;;;;128.60;2124.80;;;;;;6189805;23;19928;-91
2022/03/06 10:02:57;;;;;;;;;;;128.50;2150.40;;;;;;6190325;23;19986;-90
2022/03/06 10:05:39;;;;;;;;;;;128.50;2150.40;;;;;;6190614;23;19899;-92
2022/03/06 10:08:17;;;;;;;;;;;128.60;2176.00;;;;;;6190209;23;20689;-91
2022/03/06 10:10:43;;;;;;;;;;;128.80;2150.40;;;;;;6216267;23;19979;-91
2022/03/06 10:13:30;;;;;;;;;;;179.20;2150.40;;;;;;6191489;23;19900;-92
2022/03/06 10:16:05;;;;;;;;;;;153.90;2124.80;;;;;;6221451;23;19900;-94
2022/03/06 10:18:33;;;;;;;;;;;154.20;2099.20;;;;;;6224159;23;19904;-92
2022/03/06 10:21:12;;;;;;;;;;;179.20;2073.60;;;;;;6202868;23;19900;-94
2022/03/06 10:23:39;;;;;;;;;;;179.40;2048.00;;;;;;6197878;23;19970;-93
2022/03/06 10:26:06;;;;;;;;;;;179.80;2022.40;;;;;;6197775;23;20003;-95
2022/03/06 10:28:41;;;;;;;;;;;204.80;1971.20;;;;;;6197297;23;19903;-91
2022/03/06 10:31:07;;;;;;;;;;;204.80;1945.60;;;;;;6201271;23;19900;-94
2022/03/06 10:33:33;;;;;;;;;;;205.00;1945.60;;;;;;6194679;23;19907;-94
2022/03/06 10:36:01;;;;;;;;;;;205.20;1920.00;;;;;;6195290;23;20199;-95
2022/03/06 10:38:34;;;;;;;;;;;205.50;1894.40;;;;;;6197108;23;20237;-94
2022/03/06 10:41:01;;;;;;;;;;;230.60;1843.20;;;;;;6192700;23;19900;-90
2022/03/06 10:43:29;;;;;;;;;;;230.90;1817.60;;;;;;6192488;23;19899;-93
2022/03/06 10:46:04;;;;;;;;;;;231.00;2252.80;;;;;;6196464;23;19911;-90
2022/03/06 10:48:30;;;;;;;;;;;231.00;1843.20;;;;;;6248330;23;19962;-96
2022/03/06 10:50:56;;;;;;;;;;;;;;;;;;6222560;23;19903;-94
2022/03/06 10:53:22;;;;;;;;;;;;;;;;;;6222810;23;19900;-93
2022/03/06 10:55:48;;;;;;;;;;;;;;;;;;6221186;23;19982;-94
2022/03/06 10:58:14;;;;;;;;;;;;;;;;;;6222696;23;19922;-94
2022/03/06 11:00:40;;;;;;;;;;;230.90;1817.60;;;;;;6223222;23;19906;-95
2022/03/06 11:03:07;;;;;;;;;;;230.80;1817.60;;;;;;6224009;23;19904;-94
2022/03/06 11:05:33;;;;;;;;;;;230.80;1868.80;;;;;;6224380;23;19947;-93
2022/03/06 11:07:59;;;;;;;;;;;230.80;1843.20;;;;;;6221733;23;19900;-92
2022/03/06 11:10:25;;;;;;;;;;;230.80;1868.80;;;;;;6224166;23;19899;-92
2022/03/06 11:12:51;;;;;;;;;;;230.90;1817.60;;;;;;6224088;23;19905;-94
2022/03/06 11:15:17;;;;;;;;;;;231.10;1817.60;;;;;;6225194;23;19900;-94
2022/03/06 11:17:42;;;;;;;;;;;231.30;1792.00;;;;;;6232266;23;19931;-91
2022/03/06 11:20:08;;;;;;;;;;;256.20;1715.20;;;;;;6229301;23;19899;-93
2022/03/06 11:22:42;;;;;;;;;;;256.10;1766.40;;;;;;6227948;23;20331;-93
2022/03/06 11:25:09;;;;;;;;;;;231.30;1766.40;;;;;;6223437;23;19930;-94
2022/03/06 11:27:42;;;;;;;;;;;231.20;1766.40;;;;;;6223986;23;19906;-94
2022/03/06 11:30:20;;;;;;;;;;;231.00;1740.80;;;;;;6223357;23;19941;-93
2022/03/06 11:32:47;;;;;;;;;;;230.90;1740.80;;;;;;6223274;23;19927;-92
2022/03/06 11:35:16;;;;;;;;;;;230.80;1740.80;;;;;;6223052;23;19899;-95
2022/03/06 11:38:08;;;;;;;;;;;230.70;1715.20;;;;;;6224896;23;20317;-95
2022/03/06 11:40:52;;;;;;;;;;;230.80;1740.80;;;;;;6221902;23;19949;-91
2022/03/06 11:43:32;;;;;;;;;;;230.70;1740.80;;;;;;6250579;23;20388;-92
2022/03/06 11:46:14;;;;;;;;;;;230.70;1740.80;;;;;;6221581;23;19912;-93
2022/03/06 11:48:40;;;;;;;;;;;230.70;1715.20;;;;;;6223926;23;19904;-91
2022/03/06 11:51:24;;;;;;;;;;;230.70;1689.60;;;;;;6199019;23;20003;-95
2022/03/06 11:54:06;;;;;;;;;;;230.60;1689.60;;;;;;6198471;23;19900;-94
2022/03/06 11:56:32;;;;;;;;;;;230.70;1689.60;;;;;;6199439;23;19900;-93
2022/03/06 11:59:02;;;;;;;;;;;230.70;1664.00;;;;;;6230301;23;19900;-94
2022/03/06 12:01:29;;;;;;;;;;;230.90;1664.00;;;;;;6198692;23;20340;-93
2022/03/06 12:04:03;;;;;;;;;;;230.90;1664.00;;;;;;6204031;23;19906;-94
2022/03/06 12:06:28;;;;;;;;;;;231.00;1664.00;;;;;;6201973;23;19900;-94
2022/03/06 12:08:54;;;;;;;;;;;231.20;1664.00;;;;;;6199326;23;20207;-93
2022/03/06 12:11:20;;;;;;;;;;;231.20;1638.40;;;;;;6195538;23;19900;-93
2022/03/06 12:13:48;;;;;;;;;;;231.30;1612.80;;;;;;6192066;23;19906;-91
2022/03/06 12:16:16;;;;;;;;;;;256.00;1612.80;;;;;;6191930;23;20306;-93
2022/03/06 12:19:00;;;;;;;;;;;256.00;1587.20;;;;;;6192131;23;19904;-93
2022/03/06 12:21:25;;;;;;;;;;;256.10;1587.20;;;;;;6192060;23;19900;-90
2022/03/06 12:24:11;;;;;;;;;;;256.10;1561.60;;;;;;6192142;23;19907;-93
2022/03/06 12:26:44;;;;;;;;;;;256.10;1561.60;;;;;;6216086;23;19906;-94
2022/03/06 12:29:30;;;;;;;;;;;256.20;1561.60;;;;;;6191805;23;19908;-94
2022/03/06 12:31:55;;;;;;;;;;;256.20;1561.60;;;;;;6191700;23;19907;-94
2022/03/06 12:34:37;;;;;;;;;;;256.10;1561.60;;;;;;6191855;23;19905;-93
2022/03/06 12:37:03;;;;;;;;;;;256.10;1536.00;;;;;;6215025;23;19904;-91
2022/03/06 12:39:29;;;;;;;;;;;231.00;1561.60;;;;;;6190530;23;19907;-93
2022/03/06 12:41:54;;;;;;;;;;;256.20;1536.00;;;;;;6190737;23;19975;-94
2022/03/06 12:44:23;;;;;;;;;;;256.20;1510.40;;;;;;6190612;23;19900;-91
2022/03/06 12:46:49;;;;;;;;;;;256.10;1510.40;;;;;;6206296;23;19912;-95
2022/03/06 12:49:15;;;;;;;;;;;256.00;1510.40;;;;;;6220725;23;19907;-94
2022/03/06 12:51:42;;;;;;;;;;;256.00;1510.40;;;;;;6220876;23;19954;-92
2022/03/06 12:54:18;;;;;;;;;;;256.00;1536.00;;;;;;6220701;23;19934;-92
2022/03/06 12:56:44;;;;;;;;;;;231.20;1536.00;;;;;;6220516;23;20290;-91
2022/03/06 12:59:15;;;;;;;;;;;231.20;1536.00;;;;;;6220615;23;19934;-92
2022/03/06 13:01:40;;;;;;;;;;;231.10;1536.00;;;;;;6247268;23;19946;-91
2022/03/06 13:04:06;;;;;;;;;;;231.10;1536.00;;;;;;6220619;23;19904;-91
2022/03/06 13:06:32;;;;;;;;;;;230.90;1536.00;;;;;;6220858;23;19907;-91
2022/03/06 13:08:58;;;;;;;;;;;230.90;1536.00;;;;;;6224455;23;20228;-95
2022/03/06 13:11:33;;;;;;;;;;;230.90;1561.60;;;;;;6248952;23;19938;-94
2022/03/06 13:14:03;;;;;;;;;;;231.00;1536.00;;;;;;6222251;23;19906;-95
2022/03/06 13:16:29;;;;;;;;;;;231.00;1510.40;;;;;;6196601;23;20305;-93
2022/03/06 13:18:59;;;;;;;;;;;231.00;1510.40;;;;;;6223850;23;19970;-95
2022/03/06 13:21:26;;;;;;;;;;;231.00;1536.00;;;;;;6250082;23;19900;-95
2022/03/06 13:23:58;;;;;;;;;;;231.00;1510.40;;;;;;6224447;23;19900;-94
2022/03/06 13:26:25;;;;;;;;;;;230.80;1510.40;;;;;;6221685;23;19919;-95
2022/03/06 13:28:51;;;;;;;;;;;230.80;1536.00;;;;;;6221213;23;19914;-94
2022/03/06 13:31:17;;;;;;;;;;;230.80;1536.00;;;;;;6221404;23;19906;-95
2022/03/06 13:33:43;;;;;;;;;;;230.80;1561.60;;;;;;6221433;23;19982;-91
2022/03/06 13:36:15;;;;;;;;;;;230.90;1561.60;;;;;;6221600;23;19900;-92
2022/03/06 13:38:40;;;;;;;;;;;230.80;1561.60;;;;;;6221741;23;19899;-94
2022/03/06 13:41:09;;;;;;;;;;;230.80;1561.60;;;;;;6221698;23;19921;-91
2022/03/06 13:43:39;;;;;;;;;;;230.80;1561.60;;;;;;6222044;23;19906;-90
2022/03/06 13:46:08;;;;;;;;;;;230.60;1561.60;;;;;;6221418;23;19952;-94
2022/03/06 13:48:34;;;;;;;;;;;230.60;1561.60;;;;;;6221034;23;19903;-91
2022/03/06 13:51:00;;;;;;;;;;;230.60;1612.80;;;;;;6221293;23;19938;-96
2022/03/06 13:53:26;;;;;;;;;;;230.70;1561.60;;;;;;6221329;23;19900;-91
2022/03/06 13:55:55;;;;;;;;;;;230.60;1561.60;;;;;;6222071;23;19905;-92
2022/03/06 13:58:21;;;;;;;;;;;230.60;1536.00;;;;;;6221377;23;20321;-91
2022/03/06 14:00:48;;;;;;;;;;;230.40;1536.00;;;;;;6220697;23;20328;-92
2022/03/06 14:03:15;;;;;;;;;;;230.40;1536.00;;;;;;6221395;23;19899;-93
2022/03/06 14:05:46;;;;;;;;;;;205.70;1561.60;;;;;;6221265;23;20384;-93
2022/03/06 14:08:25;;;;;;;;;;;205.70;1536.00;;;;;;6221261;23;19982;-90
2022/03/06 14:10:58;;;;;;;;;;;205.60;1561.60;;;;;;6221173;23;19914;-89
2022/03/06 14:13:42;;;;;;;;;;;205.40;1561.60;;;;;;6221564;23;19978;-90
2022/03/06 14:16:17;;;;;;;;;;;205.40;1587.20;;;;;;6221282;23;19903;-91
2022/03/06 14:18:47;;;;;;;;;;;205.40;1587.20;;;;;;6221031;23;19904;-91
2022/03/06 14:21:20;;;;;;;;;;;205.40;1587.20;;;;;;6221164;23;19899;-90
2022/03/06 14:23:47;;;;;;;;;;;205.40;1612.80;;;;;;6221058;23;19900;-90
2022/03/06 14:26:14;;;;;;;;;;;205.40;1587.20;;;;;;6221027;23;19906;-91
2022/03/06 14:29:02;;;;;;;;;;;205.40;1587.20;;;;;;6221184;23;19908;-90
2022/03/06 14:31:28;;;;;;;;;;;205.40;1587.20;;;;;;6226956;23;19955;-90
2022/03/06 14:33:54;;;;;;;;;;;205.30;1612.80;;;;;;6221201;23;19900;-90
2022/03/06 14:36:20;;;;;;;;;;;205.40;1612.80;;;;;;6219917;23;19946;-94
2022/03/06 14:38:46;;;;;;;;;;;205.40;1587.20;;;;;;6220949;23;19900;-90
2022/03/06 14:41:13;;;;;;;;;;;205.30;1612.80;;;;;;6220826;23;19914;-90
2022/03/06 14:43:38;;;;;;;;;;;205.20;1638.40;;;;;;6220866;23;20237;-90
2022/03/06 14:46:05;;;;;;;;;;;205.20;1664.00;;;;;;6222439;23;19911;-93
2022/03/06 14:48:32;;;;;;;;;;;205.30;1664.00;;;;;;6222967;23;19915;-92
2022/03/06 14:50:57;;;;;;;;;;;205.20;1664.00;;;;;;6223124;23;19903;-95
2022/03/06 14:53:23;;;;;;;;;;;205.20;1664.00;;;;;;6222959;23;20336;-95
2022/03/06 14:55:51;;;;;;;;;;;205.20;1689.60;;;;;;6222905;23;20375;-89
2022/03/06 14:58:18;;;;;;;;;;;205.10;1689.60;;;;;;6222930;23;19900;-91
2022/03/06 15:00:43;;;;;;;;;;;205.00;1689.60;;;;;;6222901;23;19911;-91
2022/03/06 15:03:09;;;;;;;;;;;204.90;1715.20;;;;;;6222881;23;19899;-94
2022/03/06 15:05:35;;;;;;;;;;;204.90;1766.40;;;;;;6222822;23;19899;-92
2022/03/06 15:08:00;;;;;;;;;;;180.10;1766.40;;;;;;6222856;23;19906;-92
2022/03/06 15:10:26;;;;;;;;;;;204.80;1766.40;;;;;;6222704;23;20324;-91
2022/03/06 15:12:52;;;;;;;;;;;180.00;1894.40;;;;;;6222826;23;19899;-91
2022/03/06 15:15:17;;;;;;;;;;;180.00;1945.60;;;;;;6222764;23;19899;-94
2022/03/06 15:17:43;;;;;;;;;;;180.00;1971.20;;;;;;6222759;23;20233;-91
2022/03/06 15:20:09;;;;;;;;;;;180.00;1996.80;;;;;;6222967;23;19900;-92
2022/03/06 15:22:35;;;;;;;;;;;180.00;1996.80;;;;;;6222728;23;20233;-91
2022/03/06 15:25:01;;;;;;;;;;;179.80;2022.40;;;;;;6222905;23;19965;-94
2022/03/06 15:27:27;;;;;;;;;;;179.80;2048.00;;;;;;6222829;23;19899;-90
2022/03/06 15:29:53;;;;;;;;;;;179.90;2048.00;;;;;;6222692;23;19907;-90
2022/03/06 15:32:18;;;;;;;;;;;179.80;2073.60;;;;;;6222629;23;19934;-94
2022/03/06 15:34:44;;;;;;;;;;;179.80;2099.20;;;;;;6222687;23;19906;-91
2022/03/06 15:37:10;;;;;;;;;;;179.60;2124.80;;;;;;6222687;23;19899;-92
2022/03/06 15:39:36;;;;;;;;;;;179.50;2150.40;;;;;;6222470;23;19968;-91
2022/03/06 15:42:01;;;;;;;;;;;179.50;2150.40;;;;;;6222506;23;19940;-92
2022/03/06 15:44:27;;;;;;;;;;;179.40;2176.00;;;;;;6222566;23;19923;-93
2022/03/06 15:46:53;;;;;;;;;;;179.30;2201.60;;;;;;6220084;23;19946;-94
2022/03/06 15:49:18;;;;;;;;;;;179.30;2201.60;;;;;;6221291;23;19930;-94
2022/03/06 15:51:44;;;;;;;;;;;179.30;2201.60;;;;;;6222089;23;19923;-94
2022/03/06 15:54:10;;;;;;;;;;;179.20;2201.60;;;;;;6222173;23;19982;-93
2022/03/06 15:56:35;;;;;;;;;;;154.50;2227.20;;;;;;6222259;23;19900;-90
2022/03/06 15:59:01;;;;;;;;;;;154.50;2227.20;;;;;;6221129;23;19950;-94
2022/03/06 16:01:26;;;;;;;;;;;154.40;2252.80;;;;;;6222107;23;19899;-94
2022/03/06 16:03:52;;;;;;;;;;;154.40;2252.80;;;;;;6222066;23;19899;-94
2022/03/06 16:06:19;;;;;;;;;;;154.40;2252.80;;;;;;6221990;23;20329;-95
2022/03/06 16:08:45;;;;;;;;;;;154.40;2252.80;;;;;;6221922;23;19903;-92
2022/03/06 16:11:12;;;;;;;;;;;154.30;2252.80;;;;;;6221267;23;19907;-94
2022/03/06 16:13:38;;;;;;;;;;;154.20;2252.80;;;;;;6222334;23;19906;-94
2022/03/06 16:16:04;;;;;;;;;;;154.10;2252.80;;;;;;6221786;23;19939;-91
2022/03/06 16:18:30;;;;;;;;;;;153.90;2252.80;;;;;;6222086;23;19922;-93
2022/03/06 16:20:55;;;;;;;;;;;153.80;2252.80;;;;;;6222074;23;19967;-93
2022/03/06 16:23:22;;;;;;;;;;;153.70;2252.80;;;;;;6221840;23;20001;-92
2022/03/06 16:25:48;;;;;;;;;;;153.80;2252.80;;;;;;6221787;23;19900;-93
2022/03/06 16:28:13;;;;;;;;;;;153.80;2252.80;;;;;;6222088;23;19978;-93
2022/03/06 16:30:39;;;;;;;;;;;153.80;2252.80;;;;;;6221697;23;19989;-91
2022/03/06 16:33:06;;;;;;;;;;;153.80;2252.80;;;;;;6221656;23;20228;-91
2022/03/06 16:35:35;;;;;;;;;;;153.80;2252.80;;;;;;6221950;23;19950;-92
2022/03/06 16:38:01;;;;;;;;;;;153.70;2252.80;;;;;;6221478;23;19899;-93
2022/03/06 16:40:27;;;;;;;;;;;153.70;2252.80;;;;;;6223275;23;19899;-91
2022/03/06 16:42:52;;;;;;;;;;;128.70;2252.80;;;;;;6222593;23;20324;-94
2022/03/06 16:45:18;;;;;;;;;;;153.60;2252.80;;;;;;6221754;23;19900;-92
2022/03/06 16:47:43;;;;;;;;;;;153.60;2252.80;;;;;;6196188;23;20347;-92
2022/03/06 16:50:09;;;;;;;;;;;153.60;2252.80;;;;;;6192777;23;20372;-93
2022/03/06 16:52:35;;;;;;;;;;;153.60;2252.80;;;;;;6192845;23;19907;-93
2022/03/06 16:55:01;;;;;;;;;;;153.60;2252.80;;;;;;6198528;23;19910;-93
2022/03/06 16:57:33;;;;;;;;;;;153.60;2252.80;;;;;;6231165;23;19899;-92
2022/03/06 17:00:07;;;;;;;;;;;153.70;2252.80;;;;;;6215250;23;19904;-94
2022/03/06 17:02:40;;;;;;;;;;;128.90;2252.80;;;;;;6223655;23;19903;-93
2022/03/06 17:05:06;;;;;;;;;;;128.80;2252.80;;;;;;6194706;23;20321;-92
2022/03/06 17:07:32;;;;;;;;;;;128.70;2252.80;;;;;;6199314;23;19900;-94
2022/03/06 17:09:58;;;;;;;;;;;128.60;2252.80;;;;;;6197102;23;19908;-91
2022/03/06 17:12:24;;;;;;;;;;;128.60;2252.80;;;;;;6192236;23;19900;-93
2022/03/06 17:14:49;;;;;;;;;;;128.50;2252.80;;;;;;6191681;23;19907;-92
2022/03/06 17:17:16;;;;;;;;;;;128.40;2252.80;;;;;;6191991;23;19919;-93
2022/03/06 17:19:42;;;;;;;;;;;128.40;2252.80;;;;;;6192649;23;19904;-90
2022/03/06 17:22:07;;;;;;;;;;;128.40;2252.80;;;;;;6196560;23;19927;-92
2022/03/06 17:24:35;;;;;;;;;;;128.30;2252.80;;;;;;6199003;23;19900;-91
2022/03/06 17:27:06;;;;;;;;;;;128.30;2252.80;;;;;;6197614;23;19900;-92
2022/03/06 17:29:52;;;;;;;;;;;128.30;2252.80;;;;;;6195199;23;19926;-89
2022/03/06 17:32:30;;;;;;;;;;;128.20;2252.80;;;;;;6200589;23;19900;-92
2022/03/06 17:34:56;;;;;;;;;;;128.20;2252.80;;;;;;6208367;23;19924;-91
2022/03/06 17:37:42;;;;;;;;;;;128.10;2252.80;;;;;;6232076;23;20269;-91
2022/03/06 17:40:11;;;;;;;;;;;128.20;2252.80;;;;;;6195413;23;19900;-91
2022/03/06 17:55:15;;;;;;;;;;;103.30;2227.20;;;;;;6267128;22;19952;-91
2022/03/06 18:00:59;;;;;;;;;;;103.20;2227.20;;;;;;6239250;22;19920;-91
2022/03/06 18:03:49;;;;;;;;;;;103.20;2227.20;;;;;;6235648;23;19914;-92
2022/03/06 21:42:03;;;;;;;;;;;102.40;2227.20;;;;;;6231808;22;19942;-90
2022/03/06 21:44:53;;;;;;;;;;;102.40;2227.20;;;;;;6242192;23;20249;-89
2022/03/06 21:48:16;;;;;;;;;;;102.40;2227.20;;;;;;6267150;23;19918;-90
2022/03/06 21:57:18;;;;;;;;;;;102.50;2227.20;;;;;;6240832;22;20284;-90
2022/03/06 21:59:45;;;;;;;;;;;102.50;2227.20;;;;;;6228580;23;19923;-90
2022/03/06 22:02:56;;;;;;;;;;;102.50;2227.20;;;;;;6251528;23;19910;-91
2022/03/06 22:06:17;;;;;;;;;;;102.40;2227.20;;;;;;6095855;23;19904;-89
2022/03/06 22:26:48;;;;;;;;;;;102.50;2227.20;;;;;;6244108;22;19899;-91
2022/03/06 22:29:34;;;;;;;;;;;102.50;2227.20;;;;;;6242506;22;19922;-92
2022/03/06 22:32:27;;;;;;;;;;;102.50;2227.20;;;;;;6241941;22;19912;-91
2022/03/06 22:34:55;;;;;;;;;;;102.50;2227.20;;;;;;6234021;22;19964;-92
2022/03/06 22:57:07;;;;;;;;;;;102.40;2227.20;;;;;;6273059;22;19959;-89
2022/03/06 23:03:05;;;;;;;;;;;102.50;2227.20;;;;;;6152918;23;19929;-89
2022/03/06 23:09:33;;;;;;;;;;;102.50;2227.20;;;;;;6010680;23;19905;-89
2022/03/06 23:21:55;;;;;;;;;;;102.60;2227.20;;;;;;6019867;23;19913;-91
2022/03/06 23:27:23;;;;;;;;;;;102.60;2227.20;;;;;;6030655;23;20389;-91
2022/03/06 23:39:01;;;;;;;;;;;102.70;2227.20;;;;;;6114457;23;19937;-90
2022/03/06 23:41:28;;;;;;;;;;;102.60;2227.20;;;;;;6101674;23;19909;-92
2022/03/06 23:46:57;;;;;;;;;;;102.60;2227.20;;;;;;6271632;22;19922;-91
